createdAt,value
2022-12-01T00:01:18.798Z,10.60
2022-12-01T00:03:45.688Z,10.60
2022-12-01T00:06:17.958Z,10.60
2022-12-01T00:09:06.814Z,10.60
2022-12-01T00:11:35.573Z,10.60
2022-12-01T00:14:02.840Z,10.70
2022-12-01T00:16:30.476Z,10.60
2022-12-01T00:18:57.583Z,10.70
2022-12-01T00:21:25.878Z,10.70
2022-12-01T00:23:55.109Z,10.70
2022-12-01T00:26:22.678Z,10.70
2022-12-01T00:28:54.615Z,10.70
2022-12-01T00:31:21.929Z,10.70
2022-12-01T00:33:49.757Z,10.70
2022-12-01T00:36:17.023Z,10.60
2022-12-01T00:38:43.781Z,10.60
2022-12-01T00:41:10.605Z,10.50
2022-12-01T00:43:37.431Z,10.60
2022-12-01T00:46:04.474Z,10.60
2022-12-01T00:48:31.427Z,10.60
2022-12-01T00:50:58.243Z,10.60
2022-12-01T00:53:25.093Z,10.60
2022-12-01T00:55:53.942Z,10.60
2022-12-01T00:58:21.331Z,10.50
2022-12-01T01:00:48.768Z,10.50
2022-12-01T01:03:15.862Z,10.50
2022-12-01T01:05:43.695Z,10.50
2022-12-01T01:08:12.627Z,10.40
2022-12-01T01:10:40.490Z,10.40
2022-12-01T01:13:07.561Z,10.40
2022-12-01T01:15:34.744Z,10.40
2022-12-01T01:18:01.799Z,10.40
2022-12-01T01:20:28.676Z,10.40
2022-12-01T01:22:55.443Z,10.40
2022-12-01T01:25:22.776Z,10.40
2022-12-01T01:27:49.965Z,10.40
2022-12-01T01:30:17.665Z,10.40
2022-12-01T01:32:44.381Z,10.30
2022-12-01T01:35:11.215Z,10.30
2022-12-01T01:37:37.922Z,10.30
2022-12-01T01:40:05.507Z,10.30
2022-12-01T01:42:32.348Z,10.30
2022-12-01T01:44:59.439Z,10.30
2022-12-01T01:47:38.135Z,10.30
2022-12-01T01:50:09.588Z,10.20
2022-12-01T01:52:43.035Z,10.30
2022-12-01T01:55:10.025Z,10.30
2022-12-01T01:57:37.974Z,10.30
2022-12-01T02:00:17.568Z,10.40
2022-12-01T02:02:46.301Z,10.40
2022-12-01T02:05:21.010Z,10.40
2022-12-01T02:07:48.874Z,10.40
2022-12-01T02:10:22.483Z,10.40
2022-12-01T02:12:52.393Z,10.40
2022-12-01T02:15:44.837Z,10.40
2022-12-01T02:18:17.474Z,10.30
2022-12-01T02:21:23.306Z,10.30
2022-12-01T02:24:19.638Z,10.30
2022-12-01T02:27:08.772Z,10.40
2022-12-01T02:29:55.847Z,10.40
2022-12-01T02:32:56.439Z,10.40
2022-12-01T02:35:41.237Z,10.40
2022-12-01T02:38:10.993Z,10.40
2022-12-01T02:40:43.143Z,10.50
2022-12-01T02:43:29.978Z,10.40
2022-12-01T02:46:15.533Z,10.40
2022-12-01T02:48:46.765Z,10.50
2022-12-01T02:51:29.753Z,10.40
2022-12-01T02:54:01.648Z,10.60
2022-12-01T02:56:28.675Z,10.60
2022-12-01T02:58:55.518Z,10.50
2022-12-01T03:01:39.057Z,10.40
2022-12-01T03:04:36.245Z,10.50
2022-12-01T03:07:27.095Z,10.40
2022-12-01T03:10:17.367Z,10.40
2022-12-01T03:13:20.030Z,10.40
2022-12-01T03:16:16.497Z,10.50
2022-12-01T03:19:03.171Z,10.50
2022-12-01T03:21:41.467Z,10.50
2022-12-01T03:24:18.154Z,10.50
2022-12-01T03:26:48.627Z,10.40
2022-12-01T03:29:19.674Z,10.50
2022-12-01T03:31:54.415Z,10.40
2022-12-01T03:34:34.834Z,10.60
2022-12-01T03:37:18.222Z,10.50
2022-12-01T03:39:47.948Z,10.50
2022-12-01T03:42:23.601Z,10.60
2022-12-01T03:44:54.583Z,10.60
2022-12-01T03:47:25.082Z,10.60
2022-12-01T03:49:53.702Z,10.60
2022-12-01T03:52:46.430Z,10.60
2022-12-01T03:55:25.125Z,10.60
2022-12-01T04:00:33.095Z,10.60
2022-12-01T04:03:04.849Z,10.70
2022-12-01T04:05:34.069Z,10.70
2022-12-01T04:08:01.022Z,10.70
2022-12-01T04:10:27.832Z,10.70
2022-12-01T04:12:59.256Z,10.70
2022-12-01T04:15:27.102Z,10.70
2022-12-01T04:17:53.816Z,10.70
2022-12-01T04:20:20.679Z,10.70
2022-12-01T04:22:47.929Z,10.70
2022-12-01T04:25:14.674Z,10.60
2022-12-01T04:27:41.425Z,10.60
2022-12-01T04:30:09.298Z,10.60
2022-12-01T04:32:40.081Z,10.60
2022-12-01T04:35:08.357Z,10.60
2022-12-01T04:37:35.116Z,10.60
2022-12-01T04:40:02.047Z,10.60
2022-12-01T04:42:28.778Z,10.60
2022-12-01T04:44:55.518Z,10.60
2022-12-01T04:47:22.330Z,10.60
2022-12-01T04:49:49.421Z,10.70
2022-12-01T04:52:16.710Z,10.70
2022-12-01T04:54:43.386Z,10.60
2022-12-01T04:57:10.105Z,10.60
2022-12-01T04:59:36.878Z,10.60
2022-12-01T05:02:04.280Z,10.60
2022-12-01T05:04:32.491Z,10.60
2022-12-01T05:06:59.239Z,10.60
2022-12-01T05:09:26.052Z,10.60
2022-12-01T05:11:52.911Z,10.60
2022-12-01T05:14:19.721Z,10.60
2022-12-01T05:16:46.586Z,10.60
2022-12-01T05:19:32.053Z,10.60
2022-12-01T05:21:58.791Z,10.60
2022-12-01T05:24:26.243Z,10.60
2022-12-01T05:26:52.942Z,10.60
2022-12-01T05:29:19.732Z,10.60
2022-12-01T05:31:47.169Z,10.50
2022-12-01T05:34:14.468Z,10.50
2022-12-01T05:36:41.880Z,10.50
2022-12-01T05:39:08.718Z,10.50
2022-12-01T05:41:35.396Z,10.40
2022-12-01T05:44:02.295Z,10.30
2022-12-01T05:46:29.018Z,10.30
2022-12-01T05:48:55.709Z,10.30
2022-12-01T05:51:22.460Z,10.30
2022-12-01T05:53:49.643Z,10.30
2022-12-01T05:56:16.450Z,10.30
2022-12-01T05:58:43.169Z,10.30
2022-12-01T06:01:09.931Z,10.30
2022-12-01T06:03:36.622Z,10.30
2022-12-01T06:06:03.572Z,10.40
2022-12-01T06:08:30.322Z,10.40
2022-12-01T06:10:57.010Z,10.30
2022-12-01T06:13:23.866Z,10.30
2022-12-01T06:16:02.477Z,10.40
2022-12-01T06:18:32.797Z,10.20
2022-12-01T06:20:59.784Z,10.20
2022-12-01T06:23:30.306Z,10.10
2022-12-01T06:25:58.017Z,10.00
2022-12-01T06:28:24.740Z,9.90
2022-12-01T06:30:51.589Z,9.90
2022-12-01T06:33:18.290Z,9.80
2022-12-01T06:35:45.098Z,9.80
2022-12-01T06:38:11.843Z,9.70
2022-12-01T06:40:38.547Z,9.60
2022-12-01T06:43:06.366Z,9.60
2022-12-01T06:45:33.240Z,9.50
2022-12-01T06:48:00.020Z,9.40
2022-12-01T06:50:26.755Z,9.30
2022-12-01T06:52:53.768Z,9.30
2022-12-01T06:55:20.487Z,9.30
2022-12-01T06:57:47.387Z,9.20
2022-12-01T07:00:14.912Z,9.20
2022-12-01T07:02:42.006Z,9.20
2022-12-01T07:05:09.184Z,9.20
2022-12-01T07:07:37.829Z,9.10
2022-12-01T07:10:05.326Z,9.10
2022-12-01T07:12:32.306Z,9.10
2022-12-01T07:14:59.068Z,9.10
2022-12-01T07:17:25.935Z,9.10
2022-12-01T07:19:52.622Z,9.00
2022-12-01T07:22:19.509Z,9.00
2022-12-01T07:24:46.232Z,9.00
2022-12-01T07:27:12.927Z,9.00
2022-12-01T07:29:39.677Z,9.00
2022-12-01T07:32:06.573Z,9.00
2022-12-01T07:34:33.363Z,9.00
2022-12-01T07:37:00.121Z,8.90
2022-12-01T07:39:26.898Z,8.90
2022-12-01T07:41:53.615Z,8.80
2022-12-01T07:44:20.326Z,8.80
2022-12-01T07:46:47.172Z,8.80
2022-12-01T07:49:15.549Z,8.80
2022-12-01T07:51:45.327Z,8.70
2022-12-01T07:54:14.298Z,8.70
2022-12-01T07:56:41.385Z,8.70
2022-12-01T07:59:08.258Z,8.70
2022-12-01T08:01:35.018Z,8.70
2022-12-01T08:04:01.792Z,8.70
2022-12-01T08:06:28.604Z,8.80
2022-12-01T08:08:55.865Z,8.80
2022-12-01T08:11:25.213Z,9.00
2022-12-01T08:13:53.074Z,9.10
2022-12-01T08:16:22.377Z,9.20
2022-12-01T08:18:49.477Z,9.20
2022-12-01T08:21:18.287Z,9.30
2022-12-01T08:23:45.528Z,9.40
2022-12-01T08:26:17.887Z,9.40
2022-12-01T08:28:45.043Z,9.50
2022-12-01T08:31:13.330Z,9.60
2022-12-01T08:33:40.174Z,9.70
2022-12-01T08:36:07.762Z,9.70
2022-12-01T08:38:34.895Z,9.80
2022-12-01T08:41:07.331Z,9.80
2022-12-01T08:43:56.431Z,9.80
2022-12-01T08:46:21.281Z,9.90
2022-12-01T08:48:48.048Z,10.00
2022-12-01T08:51:18.241Z,10.00
2022-12-01T08:53:48.029Z,10.10
2022-12-01T08:56:18.579Z,10.10
2022-12-01T08:58:45.606Z,10.20
2022-12-01T09:01:15.123Z,10.30
2022-12-01T09:03:43.110Z,10.40
2022-12-01T09:06:17.692Z,10.40
2022-12-01T09:08:44.448Z,10.40
2022-12-01T09:11:14.150Z,10.50
2022-12-01T09:13:42.480Z,10.60
2022-12-01T09:16:12.727Z,10.60
2022-12-01T09:18:40.767Z,10.70
2022-12-01T09:21:19.893Z,10.80
2022-12-01T09:23:47.545Z,10.80
2022-12-01T09:26:18.410Z,10.80
2022-12-01T09:28:50.121Z,10.80
2022-12-01T09:31:18.349Z,10.90
2022-12-01T09:33:45.440Z,11.10
2022-12-01T09:36:12.907Z,11.20
2022-12-01T09:38:39.716Z,11.20
2022-12-01T09:41:17.879Z,11.20
2022-12-01T09:43:54.494Z,11.20
2022-12-01T09:46:26.054Z,11.10
2022-12-01T09:48:57.215Z,11.00
2022-12-01T09:51:28.055Z,11.00
2022-12-01T09:53:58.286Z,11.00
2022-12-01T09:56:29.048Z,11.00
2022-12-01T09:58:59.476Z,11.10
2022-12-01T10:01:48.167Z,11.10
2022-12-01T10:04:25.093Z,11.10
2022-12-01T10:07:03.348Z,11.10
2022-12-01T10:09:43.115Z,11.10
2022-12-01T10:12:27.672Z,11.10
2022-12-01T10:15:02.257Z,11.10
2022-12-01T10:17:45.412Z,11.10
2022-12-01T10:20:39.328Z,11.10
2022-12-01T10:23:14.933Z,11.10
2022-12-01T10:25:59.320Z,11.10
2022-12-01T10:28:47.209Z,11.10
2022-12-01T10:31:36.467Z,11.30
2022-12-01T10:34:11.002Z,11.40
2022-12-01T10:36:37.822Z,11.40
2022-12-01T10:39:07.133Z,11.40
2022-12-01T10:41:37.703Z,11.40
2022-12-01T10:44:07.091Z,11.40
2022-12-01T10:46:44.581Z,11.40
2022-12-01T10:49:13.878Z,11.60
2022-12-01T10:51:53.085Z,11.70
2022-12-01T10:54:21.536Z,11.90
2022-12-01T10:56:50.962Z,12.10
2022-12-01T10:59:49.627Z,12.20
2022-12-01T11:02:21.188Z,12.20
2022-12-01T11:05:07.194Z,12.20
2022-12-01T11:07:43.180Z,12.20
2022-12-01T11:10:29.929Z,12.20
2022-12-01T11:13:07.222Z,12.40
2022-12-01T11:15:39.810Z,12.60
2022-12-01T11:18:22.346Z,12.50
2022-12-01T11:21:04.126Z,12.40
2022-12-01T11:23:30.904Z,12.30
2022-12-01T11:26:10.250Z,12.20
2022-12-01T11:28:43.035Z,12.00
2022-12-01T11:31:11.254Z,11.80
2022-12-01T11:33:50.028Z,11.70
2022-12-01T11:36:21.331Z,11.60
2022-12-01T11:38:48.505Z,11.60
2022-12-01T11:41:36.474Z,11.50
2022-12-01T11:44:12.770Z,11.50
2022-12-01T11:46:50.438Z,11.40
2022-12-01T11:49:29.610Z,11.40
2022-12-01T11:51:56.395Z,11.40
2022-12-01T11:54:25.999Z,11.40
2022-12-01T11:57:25.197Z,11.60
2022-12-01T11:59:40.981Z,11.30
2022-12-01T12:02:31.021Z,11.30
2022-12-01T12:05:06.878Z,11.30
2022-12-01T12:07:39.435Z,11.30
2022-12-01T12:10:24.439Z,11.40
2022-12-01T12:12:58.505Z,11.30
2022-12-01T12:15:45.555Z,11.30
2022-12-01T12:18:36.581Z,11.20
2022-12-01T12:21:27.086Z,11.10
2022-12-01T12:24:13.266Z,11.20
2022-12-01T12:27:07.713Z,11.20
2022-12-01T12:29:53.148Z,11.20
2022-12-01T12:32:53.642Z,11.10
2022-12-01T12:35:33.213Z,11.10
2022-12-01T12:38:35.163Z,11.10
2022-12-01T12:41:21.421Z,11.10
2022-12-01T12:44:25.894Z,11.10
2022-12-01T12:47:00.207Z,11.00
2022-12-01T12:49:46.483Z,11.00
2022-12-01T12:52:19.404Z,11.10
2022-12-01T12:54:46.195Z,11.30
2022-12-01T12:57:35.435Z,11.50
2022-12-01T13:00:13.569Z,11.70
2022-12-01T13:02:53.184Z,11.80
2022-12-01T13:05:43.536Z,11.70
2022-12-01T13:08:21.440Z,11.70
2022-12-01T13:11:10.186Z,11.60
2022-12-01T13:13:42.105Z,11.40
2022-12-01T13:16:27.617Z,11.30
2022-12-01T13:19:03.178Z,11.30
2022-12-01T13:21:37.289Z,11.30
2022-12-01T13:24:06.136Z,11.30
2022-12-01T13:26:36.170Z,11.30
2022-12-01T13:29:06.201Z,11.30
2022-12-01T13:31:46.568Z,11.30
2022-12-01T13:34:33.452Z,11.40
2022-12-01T13:37:00.435Z,11.60
2022-12-01T13:39:36.146Z,11.60
2022-12-01T13:42:19.184Z,11.50
2022-12-01T13:45:02.657Z,11.40
2022-12-01T13:47:50.015Z,11.40
2022-12-01T13:50:46.175Z,11.20
2022-12-01T13:53:17.736Z,11.20
2022-12-01T13:56:16.543Z,11.10
2022-12-01T13:58:52.275Z,11.00
2022-12-01T14:01:22.771Z,10.90
2022-12-01T14:03:57.058Z,10.90
2022-12-01T14:06:35.904Z,10.80
2022-12-01T14:09:16.116Z,10.80
2022-12-01T14:12:02.041Z,10.70
2022-12-01T14:14:36.403Z,10.70
2022-12-01T14:17:04.017Z,10.70
2022-12-01T14:19:43.991Z,10.70
2022-12-01T14:22:32.997Z,10.70
2022-12-01T14:25:00.248Z,10.70
2022-12-01T14:27:35.927Z,10.70
2022-12-01T14:30:46.761Z,10.70
2022-12-01T14:33:51.284Z,10.60
2022-12-01T14:36:23.906Z,10.70
2022-12-01T14:39:02.445Z,10.60
2022-12-01T14:41:49.585Z,10.50
2022-12-01T14:44:23.923Z,10.60
2022-12-01T14:47:09.695Z,10.50
2022-12-01T14:50:06.084Z,10.50
2022-12-01T14:52:38.564Z,10.50
2022-12-01T14:55:13.863Z,10.50
2022-12-01T14:57:45.487Z,10.40
2022-12-01T15:00:18.443Z,10.40
2022-12-01T15:02:57.854Z,10.40
2022-12-01T15:05:27.853Z,10.40
2022-12-01T15:08:18.627Z,10.30
2022-12-01T15:10:52.441Z,10.30
2022-12-01T15:13:24.484Z,10.30
2022-12-01T15:15:54.038Z,10.20
2022-12-01T15:18:33.289Z,10.20
2022-12-01T15:21:19.878Z,10.20
2022-12-01T15:24:00.762Z,10.10
2022-12-01T15:26:31.503Z,10.10
2022-12-01T15:29:20.931Z,10.10
2022-12-01T15:31:50.269Z,9.90
2022-12-01T15:34:23.694Z,9.90
2022-12-01T15:36:52.298Z,9.70
2022-12-01T15:39:30.249Z,9.80
2022-12-01T15:41:57.395Z,9.90
2022-12-01T15:44:32.968Z,9.90
2022-12-01T15:47:00.320Z,9.90
2022-12-01T15:49:30.251Z,9.90
2022-12-01T15:52:12.501Z,9.90
2022-12-01T15:54:39.887Z,9.80
2022-12-01T15:57:07.077Z,9.80
2022-12-01T15:59:40.837Z,9.70
2022-12-01T16:02:26.792Z,9.70
2022-12-01T16:05:14.451Z,9.70
2022-12-01T16:08:12.228Z,9.60
2022-12-01T16:10:34.199Z,9.50
2022-12-01T16:13:37.696Z,9.50
2022-12-01T16:16:47.111Z,9.40
2022-12-01T16:19:16.738Z,9.30
2022-12-01T16:21:54.814Z,9.30
2022-12-01T16:24:30.050Z,9.40
2022-12-01T16:27:20.726Z,9.30
2022-12-01T16:29:55.475Z,9.30
2022-12-01T16:32:38.563Z,9.30
2022-12-01T16:35:33.986Z,9.30
2022-12-01T16:38:10.677Z,9.30
2022-12-01T16:40:41.184Z,9.40
2022-12-01T16:43:17.820Z,9.20
2022-12-01T16:45:46.257Z,9.20
2022-12-01T16:48:13.242Z,9.30
2022-12-01T16:50:40.234Z,9.30
2022-12-01T16:53:06.976Z,9.30
2022-12-01T16:55:42.009Z,9.20
2022-12-01T16:58:09.057Z,9.20
2022-12-01T17:00:36.031Z,9.20
2022-12-01T17:03:04.426Z,9.20
2022-12-01T17:05:32.165Z,9.20
2022-12-01T17:07:59.229Z,9.10
2022-12-01T17:10:26.127Z,9.10
2022-12-01T17:12:53.025Z,9.20
2022-12-01T17:15:19.799Z,9.00
2022-12-01T17:17:46.800Z,9.00
2022-12-01T17:20:13.702Z,9.00
2022-12-01T17:22:40.430Z,9.00
2022-12-01T17:25:09.630Z,9.00
2022-12-01T17:27:37.673Z,8.90
2022-12-01T17:30:05.998Z,8.90
2022-12-01T17:32:33.030Z,8.90
2022-12-01T17:35:00.725Z,8.80
2022-12-01T17:37:30.109Z,8.80
2022-12-01T17:39:56.946Z,8.80
2022-12-01T17:42:23.699Z,8.70
2022-12-01T17:44:50.690Z,8.70
2022-12-01T17:47:18.162Z,8.60
2022-12-01T17:49:44.890Z,8.60
2022-12-01T17:52:11.916Z,8.60
2022-12-01T17:54:38.728Z,8.60
2022-12-01T17:57:07.312Z,8.60
2022-12-01T17:59:35.402Z,8.60
2022-12-01T18:02:02.841Z,8.50
2022-12-01T18:04:31.017Z,8.50
2022-12-01T18:06:57.870Z,8.60
2022-12-01T18:09:24.694Z,8.50
2022-12-01T18:11:53.306Z,8.40
2022-12-01T18:14:20.100Z,8.40
2022-12-01T18:16:48.387Z,8.40
2022-12-01T18:19:15.427Z,8.40
2022-12-01T18:21:42.232Z,8.40
2022-12-01T18:24:10.171Z,8.40
2022-12-01T18:26:39.700Z,8.30
2022-12-01T18:29:13.101Z,8.30
2022-12-01T18:31:40.380Z,8.30
2022-12-01T18:34:08.009Z,8.30
2022-12-01T18:36:36.931Z,8.30
2022-12-01T18:39:05.609Z,8.30
2022-12-01T18:41:32.436Z,8.30
2022-12-01T18:43:59.331Z,8.30
2022-12-01T18:46:26.250Z,8.30
2022-12-01T18:49:02.780Z,8.30
2022-12-01T18:51:31.619Z,8.30
2022-12-01T18:54:00.044Z,8.30
2022-12-01T18:56:27.863Z,8.30
2022-12-01T18:59:02.697Z,8.30
2022-12-01T19:01:32.454Z,8.20
2022-12-01T19:04:00.149Z,8.30
2022-12-01T19:06:28.237Z,8.30
2022-12-01T19:09:01.266Z,8.30
2022-12-01T19:11:28.345Z,8.40
2022-12-01T19:13:58.187Z,8.50
2022-12-01T19:16:25.558Z,8.50
2022-12-01T19:18:53.060Z,8.60
2022-12-01T19:21:20.263Z,8.70
2022-12-01T19:23:47.720Z,8.80
2022-12-01T19:26:20.266Z,8.80
2022-12-01T19:28:47.856Z,8.90
2022-12-01T19:31:19.109Z,8.90
2022-12-01T19:33:46.516Z,8.90
2022-12-01T19:36:16.021Z,9.00
2022-12-01T19:38:44.407Z,9.00
2022-12-01T19:41:12.750Z,9.00
2022-12-01T19:43:40.181Z,9.10
2022-12-01T19:46:09.009Z,9.10
2022-12-01T19:48:36.099Z,9.10
2022-12-01T19:51:03.569Z,9.20
2022-12-01T19:53:33.491Z,9.20
2022-12-01T19:56:04.938Z,9.30
2022-12-01T19:58:35.161Z,9.30
2022-12-01T20:01:10.363Z,9.40
2022-12-01T20:03:38.053Z,9.40
2022-12-01T20:06:12.928Z,9.40
2022-12-01T20:08:40.104Z,9.40
2022-12-01T20:11:07.170Z,9.50
2022-12-01T20:13:35.862Z,9.50
2022-12-01T20:16:04.528Z,9.50
2022-12-01T20:18:31.968Z,9.50
2022-12-01T20:21:09.943Z,9.60
2022-12-01T20:23:37.295Z,9.50
2022-12-01T20:26:07.140Z,9.50
2022-12-01T20:28:35.187Z,9.50
2022-12-01T20:31:02.242Z,9.50
2022-12-01T20:33:29.414Z,9.50
2022-12-01T20:35:56.207Z,9.50
2022-12-01T20:38:27.206Z,9.50
2022-12-01T20:40:54.591Z,9.60
2022-12-01T20:43:21.334Z,9.60
2022-12-01T20:45:48.310Z,9.50
2022-12-01T20:48:15.210Z,9.60
2022-12-01T20:50:42.143Z,9.60
2022-12-01T20:53:09.575Z,9.50
2022-12-01T20:55:37.689Z,9.50
2022-12-01T20:58:08.528Z,9.60
2022-12-01T21:00:40.377Z,9.60
2022-12-01T21:03:07.163Z,9.60
2022-12-01T21:05:34.535Z,9.60
2022-12-01T21:08:01.865Z,9.60
2022-12-01T21:10:29.023Z,9.70
2022-12-01T21:13:18.771Z,9.70
2022-12-01T21:16:00.059Z,9.60
2022-12-01T21:18:48.171Z,9.60
2022-12-01T21:21:21.169Z,9.60
2022-12-01T21:24:13.566Z,9.50
2022-12-01T21:26:42.875Z,9.50
2022-12-01T21:29:44.378Z,9.50
2022-12-01T21:32:14.010Z,9.50
2022-12-01T21:34:41.422Z,9.60
2022-12-01T21:37:24.641Z,9.60
2022-12-01T21:39:52.875Z,9.60
2022-12-01T21:42:31.183Z,9.60
2022-12-01T21:44:57.993Z,9.60
2022-12-01T21:47:27.109Z,9.60
2022-12-01T21:49:57.158Z,9.60
2022-12-01T21:52:30.196Z,9.60
2022-12-01T21:55:23.280Z,9.60
2022-12-01T21:57:51.924Z,9.60
2022-12-01T22:00:26.628Z,9.50
2022-12-01T22:03:16.283Z,9.50
2022-12-01T22:06:07.204Z,9.50
2022-12-01T22:08:37.062Z,9.50
2022-12-01T22:11:18.684Z,9.50
2022-12-01T22:13:53.023Z,9.50
2022-12-01T22:16:25.331Z,9.50
2022-12-01T22:18:54.886Z,9.50
2022-12-01T22:21:35.668Z,9.60
2022-12-01T22:24:08.594Z,9.60
2022-12-01T22:26:41.291Z,9.70
2022-12-01T22:29:31.069Z,9.70
2022-12-01T22:32:23.654Z,9.70
2022-12-01T22:34:56.286Z,9.70
2022-12-01T22:37:26.963Z,9.80
2022-12-01T22:39:57.141Z,9.80
2022-12-01T22:42:34.922Z,9.80
2022-12-01T22:45:22.035Z,9.70
2022-12-01T22:47:48.829Z,9.70
2022-12-01T22:50:31.267Z,9.80
2022-12-01T22:53:12.385Z,9.80
2022-12-01T22:55:40.051Z,9.70
2022-12-01T22:58:21.488Z,9.70
2022-12-01T23:00:48.283Z,9.70
2022-12-01T23:03:15.753Z,9.70
2022-12-01T23:05:42.608Z,9.70
2022-12-01T23:08:10.841Z,9.70
2022-12-01T23:10:39.260Z,9.80
2022-12-01T23:13:24.766Z,9.80
2022-12-01T23:15:53.668Z,9.80
2022-12-01T23:18:28.460Z,9.80
2022-12-01T23:20:57.101Z,9.80
2022-12-01T23:23:34.773Z,9.80
2022-12-01T23:26:03.683Z,9.80
2022-12-01T23:28:31.018Z,9.80
2022-12-01T23:30:59.384Z,9.80
2022-12-01T23:33:29.111Z,9.80
2022-12-01T23:36:27.751Z,9.80
2022-12-01T23:39:01.359Z,9.80
2022-12-01T23:41:38.770Z,9.80
2022-12-01T23:44:28.944Z,9.80
2022-12-01T23:46:57.750Z,9.80
2022-12-01T23:49:29.398Z,9.90
2022-12-01T23:51:59.100Z,9.80
2022-12-01T23:54:33.954Z,9.80
2022-12-01T23:57:11.835Z,9.80
2022-12-01T23:59:38.731Z,9.80
